sensor_id;sensor_type;location;lat;lon;timestamp;pressure;altitude;pressure_sealevel;temperature;humidity
83483;BME280;73420;32.678;-85.380;2024-03-02T00:01:52;99277.61;;;17.41;29.76
83483;BME280;73420;32.678;-85.380;2024-03-02T00:04:17;99278.57;;;17.40;30.18
83483;BME280;73420;32.678;-85.380;2024-03-02T00:06:42;99287.62;;;17.67;29.95
83483;BME280;73420;32.678;-85.380;2024-03-02T00:09:10;99304.27;;;17.24;30.51
83483;BME280;73420;32.678;-85.380;2024-03-02T00:11:35;99331.44;;;17.23;31.15
83483;BME280;73420;32.678;-85.380;2024-03-02T00:13:58;99272.25;;;17.25;30.38
83483;BME280;73420;32.678;-85.380;2024-03-02T00:16:30;99280.81;;;17.07;30.64
83483;BME280;73420;32.678;-85.380;2024-03-02T00:18:50;99304.19;;;17.19;30.68
83483;BME280;73420;32.678;-85.380;2024-03-02T00:21:15;99269.20;;;17.16;30.80
83483;BME280;73420;32.678;-85.380;2024-03-02T00:23:41;99253.77;;;17.17;31.03
83483;BME280;73420;32.678;-85.380;2024-03-02T00:26:06;99243.33;;;17.46;30.51
83483;BME280;73420;32.678;-85.380;2024-03-02T00:28:33;99224.42;;;17.51;30.50
83483;BME280;73420;32.678;-85.380;2024-03-02T00:30:59;99212.72;;;17.38;30.42
83483;BME280;73420;32.678;-85.380;2024-03-02T00:33:25;99199.80;;;17.12;30.52
83483;BME280;73420;32.678;-85.380;2024-03-02T00:35:49;99207.39;;;17.19;30.80
83483;BME280;73420;32.678;-85.380;2024-03-02T00:38:15;99222.61;;;17.21;30.75
83483;BME280;73420;32.678;-85.380;2024-03-02T00:40:40;99208.11;;;17.52;30.78
83483;BME280;73420;32.678;-85.380;2024-03-02T00:43:05;99209.00;;;17.65;30.65
83483;BME280;73420;32.678;-85.380;2024-03-02T00:45:31;99226.22;;;17.79;30.52
83483;BME280;73420;32.678;-85.380;2024-03-02T00:47:56;99244.50;;;17.45;30.66
83483;BME280;73420;32.678;-85.380;2024-03-02T00:50:22;99232.92;;;17.46;30.68
83483;BME280;73420;32.678;-85.380;2024-03-02T00:52:48;99183.38;;;17.23;30.66
83483;BME280;73420;32.678;-85.380;2024-03-02T00:55:13;99068.86;;;17.01;31.07
83483;BME280;73420;32.678;-85.380;2024-03-02T00:57:38;98983.74;;;17.01;31.98
83483;BME280;73420;32.678;-85.380;2024-03-02T01:00:05;98914.86;;;15.96;33.21
83483;BME280;73420;32.678;-85.380;2024-03-02T01:02:29;98883.11;;;16.15;33.65
83483;BME280;73420;32.678;-85.380;2024-03-02T01:04:55;98826.30;;;15.89;34.34
83483;BME280;73420;32.678;-85.380;2024-03-02T01:07:20;98798.49;;;15.57;35.02
83483;BME280;73420;32.678;-85.380;2024-03-02T01:09:45;98801.37;;;15.79;34.78
83483;BME280;73420;32.678;-85.380;2024-03-02T01:12:11;98848.42;;;15.84;34.65
83483;BME280;73420;32.678;-85.380;2024-03-02T01:14:37;98865.75;;;15.78;34.59
83483;BME280;73420;32.678;-85.380;2024-03-02T01:17:07;98873.74;;;16.15;34.64
83483;BME280;73420;32.678;-85.380;2024-03-02T01:19:28;98879.53;;;16.35;33.73
83483;BME280;73420;32.678;-85.380;2024-03-02T01:21:53;98908.24;;;16.98;33.27
83483;BME280;73420;32.678;-85.380;2024-03-02T01:24:19;98920.88;;;16.97;33.73
83483;BME280;73420;32.678;-85.380;2024-03-02T01:26:44;98936.40;;;17.33;33.11
83483;BME280;73420;32.678;-85.380;2024-03-02T01:29:10;98961.61;;;17.64;32.88
83483;BME280;73420;32.678;-85.380;2024-03-02T01:31:35;98989.09;;;17.85;32.77
83483;BME280;73420;32.678;-85.380;2024-03-02T01:34:01;99005.94;;;18.23;32.48
83483;BME280;73420;32.678;-85.380;2024-03-02T01:36:27;99024.02;;;18.52;32.12
83483;BME280;73420;32.678;-85.380;2024-03-02T01:38:52;99017.62;;;18.72;32.03
83483;BME280;73420;32.678;-85.380;2024-03-02T01:41:19;99014.76;;;18.18;32.01
83483;BME280;73420;32.678;-85.380;2024-03-02T01:43:43;99027.00;;;18.62;32.14
83483;BME280;73420;32.678;-85.380;2024-03-02T01:46:09;99047.69;;;18.51;32.26
83483;BME280;73420;32.678;-85.380;2024-03-02T01:48:34;99075.01;;;17.58;33.10
83483;BME280;73420;32.678;-85.380;2024-03-02T01:50:59;99088.47;;;17.76;32.91
83483;BME280;73420;32.678;-85.380;2024-03-02T01:53:25;99095.67;;;18.33;32.62
83483;BME280;73420;32.678;-85.380;2024-03-02T01:55:50;99107.38;;;18.48;32.46
83483;BME280;73420;32.678;-85.380;2024-03-02T01:58:16;99118.59;;;18.37;32.24
83483;BME280;73420;32.678;-85.380;2024-03-02T02:00:42;99109.91;;;18.49;31.95
83483;BME280;73420;32.678;-85.380;2024-03-02T02:03:07;99096.38;;;18.39;32.24
83483;BME280;73420;32.678;-85.380;2024-03-02T02:05:36;99109.52;;;19.18;31.89
83483;BME280;73420;32.678;-85.380;2024-03-02T02:07:58;99135.03;;;18.83;31.96
83483;BME280;73420;32.678;-85.380;2024-03-02T02:10:23;99136.01;;;19.07;31.48
83483;BME280;73420;32.678;-85.380;2024-03-02T02:12:49;99137.25;;;18.88;31.52
83483;BME280;73420;32.678;-85.380;2024-03-02T02:15:24;99136.22;;;19.14;31.56
83483;BME280;73420;32.678;-85.380;2024-03-02T02:17:41;99142.36;;;19.45;31.57
83483;BME280;73420;32.678;-85.380;2024-03-02T02:20:06;99140.10;;;18.98;31.72
83483;BME280;73420;32.678;-85.380;2024-03-02T02:22:31;99134.33;;;19.07;31.64
83483;BME280;73420;32.678;-85.380;2024-03-02T02:24:57;99124.38;;;19.03;31.68
83483;BME280;73420;32.678;-85.380;2024-03-02T02:27:22;99115.44;;;18.74;31.83
83483;BME280;73420;32.678;-85.380;2024-03-02T02:29:53;99114.38;;;18.76;32.12
83483;BME280;73420;32.678;-85.380;2024-03-02T02:32:13;99107.85;;;18.82;31.87
83483;BME280;73420;32.678;-85.380;2024-03-02T02:34:39;99101.41;;;18.65;32.27
83483;BME280;73420;32.678;-85.380;2024-03-02T02:37:05;99099.75;;;18.61;32.01
83483;BME280;73420;32.678;-85.380;2024-03-02T02:39:30;99097.38;;;19.15;31.92
83483;BME280;73420;32.678;-85.380;2024-03-02T02:41:57;99096.77;;;18.57;31.77
83483;BME280;73420;32.678;-85.380;2024-03-02T02:44:21;99104.49;;;18.83;31.89
83483;BME280;73420;32.678;-85.380;2024-03-02T02:46:46;99110.34;;;18.54;31.94
83483;BME280;73420;32.678;-85.380;2024-03-02T02:49:12;99102.24;;;19.09;31.88
83483;BME280;73420;32.678;-85.380;2024-03-02T02:51:37;99099.81;;;18.91;31.82
83483;BME280;73420;32.678;-85.380;2024-03-02T02:54:09;99096.39;;;18.88;31.77
83483;BME280;73420;32.678;-85.380;2024-03-02T02:56:29;99099.21;;;18.69;31.82
83483;BME280;73420;32.678;-85.380;2024-03-02T02:58:54;99105.01;;;18.69;31.74
83483;BME280;73420;32.678;-85.380;2024-03-02T03:01:20;99105.07;;;18.57;31.88
83483;BME280;73420;32.678;-85.380;2024-03-02T03:03:45;99103.75;;;18.54;31.92
83483;BME280;73420;32.678;-85.380;2024-03-02T03:06:13;99101.34;;;18.78;31.95
83483;BME280;73420;32.678;-85.380;2024-03-02T03:08:36;99098.06;;;18.80;31.89
83483;BME280;73420;32.678;-85.380;2024-03-02T03:11:02;99099.48;;;18.64;31.90
83483;BME280;73420;32.678;-85.380;2024-03-02T03:13:28;99109.66;;;18.84;31.87
83483;BME280;73420;32.678;-85.380;2024-03-02T03:15:53;99119.79;;;18.75;32.01
83483;BME280;73420;32.678;-85.380;2024-03-02T03:18:19;99120.50;;;18.79;31.93
83483;BME280;73420;32.678;-85.380;2024-03-02T03:20:44;99113.32;;;18.69;31.81
83483;BME280;73420;32.678;-85.380;2024-03-02T03:23:10;99113.76;;;18.58;31.89
83483;BME280;73420;32.678;-85.380;2024-03-02T03:25:35;99118.36;;;18.92;32.02
83483;BME280;73420;32.678;-85.380;2024-03-02T03:28:00;99108.67;;;18.79;32.18
83483;BME280;73420;32.678;-85.380;2024-03-02T03:30:32;99106.18;;;18.94;32.10
83483;BME280;73420;32.678;-85.380;2024-03-02T03:32:51;99104.74;;;18.62;31.84
83483;BME280;73420;32.678;-85.380;2024-03-02T03:35:17;99107.68;;;18.99;31.79
83483;BME280;73420;32.678;-85.380;2024-03-02T03:37:42;99115.15;;;19.20;31.76
83483;BME280;73420;32.678;-85.380;2024-03-02T03:40:09;99127.08;;;18.64;31.92
83483;BME280;73420;32.678;-85.380;2024-03-02T03:42:36;99126.86;;;19.00;31.80
83483;BME280;73420;32.678;-85.380;2024-03-02T03:44:59;99129.62;;;18.86;31.71
83483;BME280;73420;32.678;-85.380;2024-03-02T03:47:25;99133.50;;;19.34;31.73
83483;BME280;73420;32.678;-85.380;2024-03-02T03:49:50;99125.13;;;18.86;31.71
83483;BME280;73420;32.678;-85.380;2024-03-02T03:52:16;99117.06;;;18.90;31.70
83483;BME280;73420;32.678;-85.380;2024-03-02T03:54:42;99114.80;;;18.72;31.84
83483;BME280;73420;32.678;-85.380;2024-03-02T03:57:07;99116.32;;;18.78;31.76
83483;BME280;73420;32.678;-85.380;2024-03-02T03:59:33;99106.99;;;18.74;31.66
83483;BME280;73420;32.678;-85.380;2024-03-02T04:01:59;99103.77;;;18.66;31.84
83483;BME280;73420;32.678;-85.380;2024-03-02T04:04:24;99095.93;;;18.80;31.94
83483;BME280;73420;32.678;-85.380;2024-03-02T04:06:50;99090.14;;;18.56;31.88
83483;BME280;73420;32.678;-85.380;2024-03-02T04:09:15;99085.75;;;18.52;31.74
83483;BME280;73420;32.678;-85.380;2024-03-02T04:11:40;99077.49;;;18.42;31.88
83483;BME280;73420;32.678;-85.380;2024-03-02T04:14:06;99085.65;;;18.44;31.95
83483;BME280;73420;32.678;-85.380;2024-03-02T04:16:31;99085.84;;;18.54;31.90
83483;BME280;73420;32.678;-85.380;2024-03-02T04:18:57;99085.87;;;18.64;31.94
83483;BME280;73420;32.678;-85.380;2024-03-02T04:21:22;99090.62;;;18.34;32.15
83483;BME280;73420;32.678;-85.380;2024-03-02T04:23:48;99096.04;;;18.76;32.33
83483;BME280;73420;32.678;-85.380;2024-03-02T04:26:14;99093.33;;;18.38;31.98
83483;BME280;73420;32.678;-85.380;2024-03-02T04:28:39;99085.03;;;18.57;32.14
83483;BME280;73420;32.678;-85.380;2024-03-02T04:31:05;99078.68;;;18.65;31.84
83483;BME280;73420;32.678;-85.380;2024-03-02T04:33:30;99081.77;;;18.22;31.94
83483;BME280;73420;32.678;-85.380;2024-03-02T04:35:55;99082.28;;;18.57;31.91
83483;BME280;73420;32.678;-85.380;2024-03-02T04:38:21;99085.10;;;18.59;31.98
83483;BME280;73420;32.678;-85.380;2024-03-02T04:40:46;99089.76;;;18.13;32.08
83483;BME280;73420;32.678;-85.380;2024-03-02T04:43:12;99094.56;;;18.35;32.30
83483;BME280;73420;32.678;-85.380;2024-03-02T04:45:38;99092.70;;;18.31;31.99
83483;BME280;73420;32.678;-85.380;2024-03-02T04:48:03;99088.68;;;18.77;32.10
83483;BME280;73420;32.678;-85.380;2024-03-02T04:50:28;99087.32;;;18.56;32.10
83483;BME280;73420;32.678;-85.380;2024-03-02T04:52:54;99084.33;;;18.84;31.98
83483;BME280;73420;32.678;-85.380;2024-03-02T04:55:19;99086.09;;;18.69;31.67
83483;BME280;73420;32.678;-85.380;2024-03-02T04:57:45;99081.10;;;18.61;31.76
83483;BME280;73420;32.678;-85.380;2024-03-02T05:00:11;99081.15;;;18.26;31.97
83483;BME280;73420;32.678;-85.380;2024-03-02T05:02:36;99077.82;;;18.31;31.83
83483;BME280;73420;32.678;-85.380;2024-03-02T05:05:02;99075.17;;;18.63;31.86
83483;BME280;73420;32.678;-85.380;2024-03-02T05:07:29;99075.44;;;18.54;32.08
83483;BME280;73420;32.678;-85.380;2024-03-02T05:09:52;99080.23;;;18.24;32.17
83483;BME280;73420;32.678;-85.380;2024-03-02T05:12:18;99082.17;;;18.25;32.40
83483;BME280;73420;32.678;-85.380;2024-03-02T05:14:43;99084.77;;;18.08;32.40
83483;BME280;73420;32.678;-85.380;2024-03-02T05:17:08;99082.44;;;17.87;32.62
83483;BME280;73420;32.678;-85.380;2024-03-02T05:19:34;99079.84;;;18.25;32.38
83483;BME280;73420;32.678;-85.380;2024-03-02T05:22:00;99077.90;;;18.17;32.53
83483;BME280;73420;32.678;-85.380;2024-03-02T05:24:25;99077.54;;;18.23;32.42
83483;BME280;73420;32.678;-85.380;2024-03-02T05:26:51;99076.29;;;18.03;32.61
83483;BME280;73420;32.678;-85.380;2024-03-02T05:29:16;99070.00;;;17.98;32.67
83483;BME280;73420;32.678;-85.380;2024-03-02T05:31:42;99070.32;;;18.43;32.36
83483;BME280;73420;32.678;-85.380;2024-03-02T05:34:07;99066.07;;;18.32;32.47
83483;BME280;73420;32.678;-85.380;2024-03-02T05:36:33;99066.70;;;18.16;32.68
83483;BME280;73420;32.678;-85.380;2024-03-02T05:38:58;99065.62;;;18.29;32.62
83483;BME280;73420;32.678;-85.380;2024-03-02T05:41:24;99058.21;;;18.42;32.47
83483;BME280;73420;32.678;-85.380;2024-03-02T05:43:50;99051.87;;;18.15;32.55
83483;BME280;73420;32.678;-85.380;2024-03-02T05:46:15;99049.90;;;18.50;32.44
83483;BME280;73420;32.678;-85.380;2024-03-02T05:48:41;99051.71;;;18.43;32.46
83483;BME280;73420;32.678;-85.380;2024-03-02T05:51:06;99051.67;;;18.51;32.42
83483;BME280;73420;32.678;-85.380;2024-03-02T05:53:32;99046.93;;;18.37;32.22
83483;BME280;73420;32.678;-85.380;2024-03-02T05:55:58;99047.71;;;18.42;32.29
83483;BME280;73420;32.678;-85.380;2024-03-02T05:58:23;99050.09;;;18.59;32.36
83483;BME280;73420;32.678;-85.380;2024-03-02T06:00:49;99054.61;;;18.40;32.61
83483;BME280;73420;32.678;-85.380;2024-03-02T06:03:14;99059.53;;;18.18;32.91
83483;BME280;73420;32.678;-85.380;2024-03-02T06:05:40;99051.59;;;18.25;32.83
83483;BME280;73420;32.678;-85.380;2024-03-02T06:08:06;99049.68;;;18.20;32.57
83483;BME280;73420;32.678;-85.380;2024-03-02T06:10:31;99041.66;;;18.35;32.75
83483;BME280;73420;32.678;-85.380;2024-03-02T06:12:56;99044.34;;;18.32;32.90
83483;BME280;73420;32.678;-85.380;2024-03-02T06:15:22;99044.85;;;18.35;32.72
83483;BME280;73420;32.678;-85.380;2024-03-02T06:17:47;99039.58;;;18.22;32.95
83483;BME280;73420;32.678;-85.380;2024-03-02T06:20:13;99038.43;;;18.19;33.03
83483;BME280;73420;32.678;-85.380;2024-03-02T06:22:38;99039.44;;;17.64;33.08
83483;BME280;73420;32.678;-85.380;2024-03-02T06:25:04;99037.64;;;18.39;32.77
83483;BME280;73420;32.678;-85.380;2024-03-02T06:27:30;99038.76;;;18.25;32.74
83483;BME280;73420;32.678;-85.380;2024-03-02T06:29:55;99034.89;;;18.07;33.19
83483;BME280;73420;32.678;-85.380;2024-03-02T06:32:21;99033.08;;;18.41;32.79
83483;BME280;73420;32.678;-85.380;2024-03-02T06:34:46;99035.29;;;18.21;32.99
83483;BME280;73420;32.678;-85.380;2024-03-02T06:37:12;99034.84;;;18.33;32.96
83483;BME280;73420;32.678;-85.380;2024-03-02T06:39:37;99034.91;;;18.46;32.86
83483;BME280;73420;32.678;-85.380;2024-03-02T06:42:03;99034.08;;;18.24;32.82
83483;BME280;73420;32.678;-85.380;2024-03-02T06:44:29;99037.96;;;18.69;32.53
83483;BME280;73420;32.678;-85.380;2024-03-02T06:46:54;99036.82;;;18.58;32.53
83483;BME280;73420;32.678;-85.380;2024-03-02T06:49:19;99032.58;;;18.32;32.84
83483;BME280;73420;32.678;-85.380;2024-03-02T06:51:45;99035.17;;;18.31;32.42
83483;BME280;73420;32.678;-85.380;2024-03-02T06:54:10;99037.93;;;18.32;32.68
83483;BME280;73420;32.678;-85.380;2024-03-02T06:56:39;99036.91;;;18.04;33.04
83483;BME280;73420;32.678;-85.380;2024-03-02T06:59:02;99038.17;;;18.64;32.82
83483;BME280;73420;32.678;-85.380;2024-03-02T07:01:27;99039.88;;;18.20;32.57
83483;BME280;73420;32.678;-85.380;2024-03-02T07:03:53;99037.88;;;18.14;32.70
83483;BME280;73420;32.678;-85.380;2024-03-02T07:06:18;99034.95;;;18.33;32.57
83483;BME280;73420;32.678;-85.380;2024-03-02T07:08:45;99029.43;;;18.77;32.55
83483;BME280;73420;32.678;-85.380;2024-03-02T07:11:09;99023.32;;;18.72;32.56
83483;BME280;73420;32.678;-85.380;2024-03-02T07:13:35;99026.61;;;18.70;32.70
83483;BME280;73420;32.678;-85.380;2024-03-02T07:16:00;99029.39;;;18.43;32.71
83483;BME280;73420;32.678;-85.380;2024-03-02T07:18:26;99033.58;;;18.20;32.55
83483;BME280;73420;32.678;-85.380;2024-03-02T07:20:52;99041.27;;;18.58;32.59
83483;BME280;73420;32.678;-85.380;2024-03-02T07:23:17;99039.14;;;18.69;32.60
83483;BME280;73420;32.678;-85.380;2024-03-02T07:25:42;99035.68;;;18.57;32.84
83483;BME280;73420;32.678;-85.380;2024-03-02T07:28:08;99033.04;;;18.64;32.82
83483;BME280;73420;32.678;-85.380;2024-03-02T07:30:34;99028.52;;;18.67;32.68
83483;BME280;73420;32.678;-85.380;2024-03-02T07:32:59;99019.51;;;18.77;32.55
83483;BME280;73420;32.678;-85.380;2024-03-02T07:35:25;99020.64;;;18.77;32.58
83483;BME280;73420;32.678;-85.380;2024-03-02T07:37:50;99016.27;;;18.48;32.59
83483;BME280;73420;32.678;-85.380;2024-03-02T07:40:16;99007.27;;;18.55;32.44
83483;BME280;73420;32.678;-85.380;2024-03-02T07:42:41;99010.34;;;18.40;32.48
83483;BME280;73420;32.678;-85.380;2024-03-02T07:45:07;99015.51;;;18.45;32.90
83483;BME280;73420;32.678;-85.380;2024-03-02T07:47:32;99017.42;;;18.05;32.73
83483;BME280;73420;32.678;-85.380;2024-03-02T07:49:58;99012.39;;;18.39;32.71
83483;BME280;73420;32.678;-85.380;2024-03-02T07:52:23;99009.08;;;18.51;32.69
83483;BME280;73420;32.678;-85.380;2024-03-02T07:54:49;99009.96;;;18.37;32.66
83483;BME280;73420;32.678;-85.380;2024-03-02T07:57:15;99011.83;;;18.81;32.42
83483;BME280;73420;32.678;-85.380;2024-03-02T07:59:40;99005.99;;;18.64;32.32
83483;BME280;73420;32.678;-85.380;2024-03-02T08:02:05;99000.06;;;18.53;32.74
83483;BME280;73420;32.678;-85.380;2024-03-02T08:04:31;98997.51;;;18.45;32.64
83483;BME280;73420;32.678;-85.380;2024-03-02T08:06:57;98992.16;;;18.85;32.40
83483;BME280;73420;32.678;-85.380;2024-03-02T08:09:24;98987.84;;;18.90;32.23
83483;BME280;73420;32.678;-85.380;2024-03-02T08:11:48;98986.44;;;18.74;32.56
83483;BME280;73420;32.678;-85.380;2024-03-02T08:14:13;98981.08;;;18.48;32.57
83483;BME280;73420;32.678;-85.380;2024-03-02T08:16:39;98981.04;;;18.63;32.44
83483;BME280;73420;32.678;-85.380;2024-03-02T08:19:04;98986.68;;;18.33;32.47
83483;BME280;73420;32.678;-85.380;2024-03-02T08:21:30;98986.77;;;18.78;32.39
83483;BME280;73420;32.678;-85.380;2024-03-02T08:23:55;98988.17;;;18.52;32.76
83483;BME280;73420;32.678;-85.380;2024-03-02T08:26:20;98978.18;;;18.53;32.54
83483;BME280;73420;32.678;-85.380;2024-03-02T08:28:46;98977.16;;;18.66;32.29
83483;BME280;73420;32.678;-85.380;2024-03-02T08:31:12;98977.56;;;18.84;32.25
83483;BME280;73420;32.678;-85.380;2024-03-02T08:33:39;98986.16;;;18.57;32.43
83483;BME280;73420;32.678;-85.380;2024-03-02T08:36:03;98988.34;;;18.73;32.44
83483;BME280;73420;32.678;-85.380;2024-03-02T08:38:28;98983.72;;;18.63;32.65
83483;BME280;73420;32.678;-85.380;2024-03-02T08:40:54;98971.89;;;18.76;32.62
83483;BME280;73420;32.678;-85.380;2024-03-02T08:43:19;98968.86;;;18.93;32.40
83483;BME280;73420;32.678;-85.380;2024-03-02T08:45:48;98971.28;;;18.63;32.33
83483;BME280;73420;32.678;-85.380;2024-03-02T08:48:10;98978.05;;;18.40;32.61
83483;BME280;73420;32.678;-85.380;2024-03-02T08:50:37;98978.82;;;18.28;32.35
83483;BME280;73420;32.678;-85.380;2024-03-02T08:53:02;98989.91;;;18.69;32.57
83483;BME280;73420;32.678;-85.380;2024-03-02T08:55:27;98988.24;;;18.64;32.60
83483;BME280;73420;32.678;-85.380;2024-03-02T08:57:53;98984.07;;;18.69;32.51
83483;BME280;73420;32.678;-85.380;2024-03-02T09:00:19;98986.34;;;18.60;32.78
83483;BME280;73420;32.678;-85.380;2024-03-02T09:02:44;98981.89;;;18.16;32.86
83483;BME280;73420;32.678;-85.380;2024-03-02T09:05:09;98978.12;;;18.45;32.89
83483;BME280;73420;32.678;-85.380;2024-03-02T09:07:34;98978.88;;;18.50;32.83
83483;BME280;73420;32.678;-85.380;2024-03-02T09:10:01;98974.09;;;18.53;32.64
83483;BME280;73420;32.678;-85.380;2024-03-02T09:12:26;98970.40;;;18.43;32.83
83483;BME280;73420;32.678;-85.380;2024-03-02T09:14:52;98967.44;;;18.64;32.62
83483;BME280;73420;32.678;-85.380;2024-03-02T09:17:17;98975.40;;;18.49;33.00
83483;BME280;73420;32.678;-85.380;2024-03-02T09:19:42;98986.60;;;18.34;33.10
83483;BME280;73420;32.678;-85.380;2024-03-02T09:22:08;98989.56;;;18.04;32.81
83483;BME280;73420;32.678;-85.380;2024-03-02T09:24:33;98988.81;;;18.42;32.66
83483;BME280;73420;32.678;-85.380;2024-03-02T09:26:59;98987.35;;;18.18;32.52
83483;BME280;73420;32.678;-85.380;2024-03-02T09:29:24;98990.45;;;18.32;32.92
83483;BME280;73420;32.678;-85.380;2024-03-02T09:31:50;98988.70;;;18.14;32.93
83483;BME280;73420;32.678;-85.380;2024-03-02T09:34:16;98985.46;;;18.41;32.58
83483;BME280;73420;32.678;-85.380;2024-03-02T09:36:41;98982.73;;;18.74;32.51
83483;BME280;73420;32.678;-85.380;2024-03-02T09:39:08;98982.17;;;18.81;32.42
83483;BME280;73420;32.678;-85.380;2024-03-02T09:41:33;98983.04;;;18.60;32.34
83483;BME280;73420;32.678;-85.380;2024-03-02T09:43:58;98989.31;;;18.49;32.38
83483;BME280;73420;32.678;-85.380;2024-03-02T09:46:25;98991.79;;;18.77;32.36
83483;BME280;73420;32.678;-85.380;2024-03-02T09:48:49;98991.81;;;18.32;32.58
83483;BME280;73420;32.678;-85.380;2024-03-02T09:51:14;99000.34;;;18.67;32.53
83483;BME280;73420;32.678;-85.380;2024-03-02T09:53:40;99002.64;;;18.57;32.35
83483;BME280;73420;32.678;-85.380;2024-03-02T09:56:06;99003.66;;;18.35;32.14
83483;BME280;73420;32.678;-85.380;2024-03-02T09:58:31;99001.58;;;18.26;32.15
83483;BME280;73420;32.678;-85.380;2024-03-02T10:00:56;99000.62;;;18.71;32.21
83483;BME280;73420;32.678;-85.380;2024-03-02T10:03:23;99000.98;;;18.46;32.33
83483;BME280;73420;32.678;-85.380;2024-03-02T10:05:47;99002.05;;;18.83;32.19
83483;BME280;73420;32.678;-85.380;2024-03-02T10:08:13;99003.50;;;18.64;32.32
83483;BME280;73420;32.678;-85.380;2024-03-02T10:10:40;99006.58;;;18.37;32.54
83483;BME280;73420;32.678;-85.380;2024-03-02T10:13:05;99007.88;;;18.56;32.62
83483;BME280;73420;32.678;-85.380;2024-03-02T10:15:30;99010.84;;;18.66;32.50
83483;BME280;73420;32.678;-85.380;2024-03-02T10:17:55;99008.15;;;18.43;32.65
83483;BME280;73420;32.678;-85.380;2024-03-02T10:20:22;99004.00;;;18.52;32.71
83483;BME280;73420;32.678;-85.380;2024-03-02T10:22:46;99006.87;;;18.28;32.61
83483;BME280;73420;32.678;-85.380;2024-03-02T10:27:37;99008.61;;;18.61;32.61
83483;BME280;73420;32.678;-85.380;2024-03-02T10:30:03;99011.13;;;18.67;32.47
83483;BME280;73420;32.678;-85.380;2024-03-02T10:32:29;99012.40;;;18.51;32.48
83483;BME280;73420;32.678;-85.380;2024-03-02T10:34:54;99010.82;;;18.69;32.52
83483;BME280;73420;32.678;-85.380;2024-03-02T10:37:21;99017.45;;;18.69;32.46
83483;BME280;73420;32.678;-85.380;2024-03-02T10:39:47;99019.41;;;18.29;32.64
83483;BME280;73420;32.678;-85.380;2024-03-02T10:42:12;99024.52;;;18.21;32.81
83483;BME280;73420;32.678;-85.380;2024-03-02T10:44:36;99028.09;;;18.20;32.77
83483;BME280;73420;32.678;-85.380;2024-03-02T10:47:04;99026.40;;;18.43;32.86
83483;BME280;73420;32.678;-85.380;2024-03-02T10:49:27;99027.87;;;17.96;32.92
83483;BME280;73420;32.678;-85.380;2024-03-02T10:51:53;99033.76;;;18.28;32.81
83483;BME280;73420;32.678;-85.380;2024-03-02T10:54:18;99037.36;;;18.72;32.57
83483;BME280;73420;32.678;-85.380;2024-03-02T10:56:45;99041.92;;;18.71;32.39
83483;BME280;73420;32.678;-85.380;2024-03-02T10:59:17;99042.14;;;18.47;32.81
83483;BME280;73420;32.678;-85.380;2024-03-02T11:01:36;99041.29;;;18.37;32.75
83483;BME280;73420;32.678;-85.380;2024-03-02T11:04:04;99040.39;;;18.49;32.79
83483;BME280;73420;32.678;-85.380;2024-03-02T11:06:28;99042.54;;;18.48;32.63
83483;BME280;73420;32.678;-85.380;2024-03-02T11:08:52;99040.23;;;18.33;32.72
83483;BME280;73420;32.678;-85.380;2024-03-02T11:11:23;99035.54;;;18.36;32.69
83483;BME280;73420;32.678;-85.380;2024-03-02T11:13:47;99032.97;;;18.12;32.57
83483;BME280;73420;32.678;-85.380;2024-03-02T11:16:12;99029.16;;;18.01;32.80
83483;BME280;73420;32.678;-85.380;2024-03-02T11:18:34;99031.59;;;17.81;32.81
83483;BME280;73420;32.678;-85.380;2024-03-02T11:20:59;99032.22;;;18.18;32.91
83483;BME280;73420;32.678;-85.380;2024-03-02T11:23:33;99033.36;;;17.99;32.87
83483;BME280;73420;32.678;-85.380;2024-03-02T11:25:50;99037.68;;;17.92;32.97
83483;BME280;73420;32.678;-85.380;2024-03-02T11:28:16;99038.18;;;18.02;32.62
83483;BME280;73420;32.678;-85.380;2024-03-02T11:30:50;99043.85;;;17.83;32.94
83483;BME280;73420;32.678;-85.380;2024-03-02T11:33:07;99046.33;;;17.89;32.80
83483;BME280;73420;32.678;-85.380;2024-03-02T11:35:33;99045.94;;;17.72;32.85
83483;BME280;73420;32.678;-85.380;2024-03-02T11:37:58;99047.03;;;17.62;33.04
83483;BME280;73420;32.678;-85.380;2024-03-02T11:40:25;99055.10;;;17.77;33.03
83483;BME280;73420;32.678;-85.380;2024-03-02T11:42:49;99058.29;;;18.33;32.73
83483;BME280;73420;32.678;-85.380;2024-03-02T11:45:16;99054.47;;;17.96;32.37
83483;BME280;73420;32.678;-85.380;2024-03-02T11:47:50;99054.85;;;17.83;32.47
83483;BME280;73420;32.678;-85.380;2024-03-02T11:50:06;99048.75;;;17.93;32.66
83483;BME280;73420;32.678;-85.380;2024-03-02T11:52:31;99049.59;;;17.78;32.74
83483;BME280;73420;32.678;-85.380;2024-03-02T11:54:57;99047.54;;;17.64;32.91
83483;BME280;73420;32.678;-85.380;2024-03-02T11:57:22;99048.81;;;17.61;32.76
83483;BME280;73420;32.678;-85.380;2024-03-02T11:59:48;99050.74;;;17.59;32.60
83483;BME280;73420;32.678;-85.380;2024-03-02T12:02:16;99050.18;;;17.78;32.66
83483;BME280;73420;32.678;-85.380;2024-03-02T12:04:40;99051.34;;;17.61;32.84
83483;BME280;73420;32.678;-85.380;2024-03-02T12:07:04;99053.19;;;17.63;32.66
83483;BME280;73420;32.678;-85.380;2024-03-02T12:09:30;99050.92;;;17.80;32.76
83483;BME280;73420;32.678;-85.380;2024-03-02T12:12:03;99051.88;;;17.52;32.53
83483;BME280;73420;32.678;-85.380;2024-03-02T12:14:21;99052.38;;;17.23;32.83
83483;BME280;73420;32.678;-85.380;2024-03-02T12:16:47;99063.04;;;17.44;32.74
83483;BME280;73420;32.678;-85.380;2024-03-02T12:19:12;99074.35;;;17.30;32.65
83483;BME280;73420;32.678;-85.380;2024-03-02T12:21:38;99077.69;;;17.59;32.66
83483;BME280;73420;32.678;-85.380;2024-03-02T12:24:07;99080.24;;;17.47;32.67
83483;BME280;73420;32.678;-85.380;2024-03-02T12:26:29;99087.82;;;17.63;32.61
83483;BME280;73420;32.678;-85.380;2024-03-02T12:28:54;99090.75;;;17.42;32.49
83483;BME280;73420;32.678;-85.380;2024-03-02T12:31:20;99093.11;;;17.70;32.45
83483;BME280;73420;32.678;-85.380;2024-03-02T12:33:46;99100.40;;;17.70;32.43